createdAt,value
2023-05-12T00:01:27.393Z,23.52
2023-05-12T00:03:54.645Z,24.02
2023-05-12T00:06:21.988Z,23.77
2023-05-12T00:08:49.126Z,23.83
2023-05-12T00:11:16.188Z,25.65
2023-05-12T00:13:43.233Z,26.00
2023-05-12T00:16:10.604Z,26.58
2023-05-12T00:18:38.156Z,28.50
2023-05-12T00:21:05.679Z,28.20
2023-05-12T00:23:33.467Z,27.23
2023-05-12T00:26:00.723Z,26.92
2023-05-12T00:28:27.770Z,26.98
2023-05-12T00:30:54.897Z,27.05
2023-05-12T00:33:22.057Z,25.98
2023-05-12T00:35:49.291Z,26.55
2023-05-12T00:38:16.559Z,27.33
2023-05-12T00:40:44.324Z,24.42
2023-05-12T00:43:11.633Z,24.73
2023-05-12T00:45:44.535Z,23.08
2023-05-12T00:48:11.885Z,22.33
2023-05-12T00:50:41.814Z,21.17
2023-05-12T00:53:11.567Z,22.63
2023-05-12T00:55:39.073Z,20.83
2023-05-12T00:58:06.400Z,21.20
2023-05-12T01:00:33.603Z,21.83
2023-05-12T01:03:01.199Z,21.30
2023-05-12T01:05:31.147Z,20.25
2023-05-12T01:08:04.290Z,22.13
2023-05-12T01:10:31.695Z,20.20
2023-05-12T01:13:03.101Z,20.20
2023-05-12T01:15:31.948Z,18.60
2023-05-12T01:18:04.505Z,21.50
2023-05-12T01:20:33.311Z,18.02
2023-05-12T01:23:08.450Z,17.00
2023-05-12T01:25:39.921Z,18.67
2023-05-12T01:28:20.955Z,17.25
2023-05-12T01:30:52.369Z,16.65
2023-05-12T01:33:48.441Z,16.67
2023-05-12T01:36:20.914Z,16.05
2023-05-12T01:38:51.198Z,16.30
2023-05-12T01:41:35.196Z,16.27
2023-05-12T01:44:15.649Z,16.33
2023-05-12T01:49:18.846Z,14.90
2023-05-12T01:51:55.812Z,15.98
2023-05-12T01:57:29.329Z,18.15
2023-05-12T02:00:07.454Z,15.57
2023-05-12T02:02:48.803Z,16.80
2023-05-12T02:05:17.937Z,15.68
2023-05-12T02:07:47.890Z,18.00
2023-05-12T02:10:15.258Z,16.75
2023-05-12T02:12:45.266Z,17.17
2023-05-12T02:15:34.007Z,19.80
2023-05-12T02:18:07.766Z,17.73
2023-05-12T02:20:35.579Z,18.42
2023-05-12T02:23:12.005Z,20.02
2023-05-12T02:25:41.499Z,19.42
2023-05-12T02:28:30.042Z,20.85
2023-05-12T02:31:00.372Z,19.08
2023-05-12T02:33:32.125Z,21.80
2023-05-12T02:36:11.147Z,20.80
2023-05-12T02:38:46.942Z,20.60
2023-05-12T02:41:24.076Z,20.90
2023-05-12T02:43:56.803Z,22.45
2023-05-12T02:46:24.358Z,21.48
2023-05-12T02:48:51.520Z,21.45
2023-05-12T02:51:18.623Z,22.80
2023-05-12T02:53:46.210Z,23.65
2023-05-12T02:56:13.248Z,20.80
2023-05-12T02:58:40.388Z,23.95
2023-05-12T03:01:11.261Z,22.42
2023-05-12T03:03:39.169Z,22.65
2023-05-12T03:06:06.718Z,24.30
2023-05-12T03:08:33.870Z,23.15
2023-05-12T03:11:00.932Z,22.50
2023-05-12T03:13:28.023Z,22.92
2023-05-12T03:15:55.750Z,22.15
2023-05-12T03:18:23.000Z,22.17
2023-05-12T03:20:50.502Z,22.02
2023-05-12T03:23:17.520Z,21.50
2023-05-12T03:25:47.855Z,20.05
2023-05-12T03:28:15.330Z,19.95
2023-05-12T03:30:43.229Z,20.65
2023-05-12T03:33:11.213Z,19.48
2023-05-12T03:35:42.987Z,18.30
2023-05-12T03:38:13.484Z,18.13
2023-05-12T03:43:25.408Z,19.38
2023-05-12T03:45:52.671Z,14.35
2023-05-12T03:48:20.012Z,14.85
2023-05-12T03:50:52.518Z,19.52
2023-05-12T03:53:30.514Z,20.95
2023-05-12T03:56:01.329Z,21.75
2023-05-12T03:58:37.982Z,18.45
2023-05-12T04:01:08.105Z,17.65
2023-05-12T04:03:39.216Z,19.00
2023-05-12T04:06:18.214Z,15.80
2023-05-12T04:08:52.627Z,17.42
2023-05-12T04:11:53.509Z,14.65
2023-05-12T04:17:05.592Z,9.32
2023-05-12T04:19:32.550Z,8.93
2023-05-12T04:21:59.603Z,8.93
2023-05-12T04:24:27.649Z,7.60
2023-05-12T04:26:54.718Z,9.40
2023-05-12T04:29:21.711Z,9.32
2023-05-12T04:31:48.797Z,8.93
2023-05-12T04:34:15.808Z,8.70
2023-05-12T04:36:42.877Z,8.02
2023-05-12T04:39:09.958Z,8.00
2023-05-12T04:41:36.932Z,7.43
2023-05-12T04:44:03.964Z,7.50
2023-05-12T04:46:31.044Z,8.38
2023-05-12T04:48:58.134Z,8.02
2023-05-12T04:51:25.254Z,9.55
2023-05-12T04:53:52.285Z,8.50
2023-05-12T04:56:19.370Z,7.60
2023-05-12T04:58:46.392Z,6.80
2023-05-12T05:01:13.689Z,7.28
2023-05-12T05:03:41.176Z,7.75
2023-05-12T05:06:08.881Z,5.80
2023-05-12T05:08:35.874Z,5.47
2023-05-12T05:11:02.951Z,5.82
2023-05-12T05:13:30.032Z,6.10
2023-05-12T05:15:57.131Z,6.22
2023-05-12T05:18:24.665Z,6.00
2023-05-12T05:20:57.674Z,6.28
2023-05-12T05:23:25.771Z,6.13
2023-05-12T05:25:52.904Z,4.57
2023-05-12T05:28:19.930Z,4.68
2023-05-12T05:30:47.130Z,4.32
2023-05-12T05:33:14.195Z,4.18
2023-05-12T05:35:42.432Z,3.65
2023-05-12T05:38:27.370Z,3.80
2023-05-12T05:44:56.984Z,3.30
2023-05-12T05:53:29.223Z,3.88
2023-05-12T05:56:42.326Z,4.07
2023-05-12T06:00:23.761Z,3.92
2023-05-12T06:03:32.823Z,4.00
2023-05-12T06:06:13.666Z,3.15
2023-05-12T06:08:40.995Z,3.92
2023-05-12T06:11:08.040Z,3.33
2023-05-12T06:13:36.758Z,3.45
2023-05-12T06:16:04.103Z,3.60
2023-05-12T06:18:33.733Z,2.90
2023-05-12T06:21:01.192Z,3.42
2023-05-12T06:23:28.255Z,3.65
2023-05-12T06:25:55.304Z,3.75
2023-05-12T06:28:22.508Z,3.60
2023-05-12T06:30:49.519Z,2.85
2023-05-12T06:33:16.530Z,2.25
2023-05-12T06:35:43.524Z,2.30
2023-05-12T06:38:10.727Z,2.30
2023-05-12T06:40:37.878Z,1.90
2023-05-12T06:43:04.915Z,1.98
2023-05-12T06:45:31.907Z,1.83
2023-05-12T06:47:58.976Z,1.58
2023-05-12T06:50:26.097Z,2.28
2023-05-12T06:52:53.451Z,1.48
2023-05-12T06:55:21.113Z,1.38
2023-05-12T06:58:13.642Z,1.70
2023-05-12T07:03:32.727Z,1.40
2023-05-12T07:05:59.972Z,1.40
2023-05-12T07:14:04.995Z,0.85
2023-05-12T07:16:33.600Z,1.00
2023-05-12T07:19:01.631Z,1.48
2023-05-12T07:32:28.619Z,1.73
2023-05-12T07:34:57.372Z,2.08
2023-05-12T07:37:27.695Z,2.33
2023-05-12T07:39:55.469Z,2.50
2023-05-12T07:42:23.712Z,2.53
2023-05-12T07:44:51.114Z,2.40
2023-05-12T07:47:22.912Z,2.08
2023-05-12T07:49:50.845Z,3.10
2023-05-12T07:52:18.263Z,3.22
2023-05-12T07:54:46.548Z,2.97
2023-05-12T07:57:13.977Z,2.63
2023-05-12T07:59:42.888Z,2.67
2023-05-12T08:02:13.184Z,2.60
2023-05-12T08:07:12.739Z,2.88
2023-05-12T08:09:39.868Z,2.50
2023-05-12T08:12:08.417Z,2.10
2023-05-12T08:14:42.724Z,2.17
2023-05-12T08:17:10.732Z,1.92
2023-05-12T08:22:24.004Z,2.45
2023-05-12T08:24:58.729Z,2.05
2023-05-12T08:35:25.879Z,2.28
2023-05-12T08:37:56.974Z,2.17
2023-05-12T08:40:28.329Z,2.05
2023-05-12T08:43:00.454Z,1.95
2023-05-12T08:45:29.216Z,2.40
2023-05-12T08:47:57.293Z,1.80
2023-05-12T08:50:25.058Z,1.90
2023-05-12T08:52:52.520Z,1.70
2023-05-12T08:55:20.428Z,2.45
2023-05-12T08:57:48.890Z,2.00
2023-05-12T09:00:16.833Z,2.22
2023-05-12T09:02:52.270Z,1.63
2023-05-12T09:05:21.764Z,2.10
2023-05-12T09:07:49.636Z,1.75
2023-05-12T09:10:32.922Z,2.08
2023-05-12T09:13:24.094Z,1.65
2023-05-12T09:15:53.720Z,1.70
2023-05-12T09:18:21.013Z,2.08
2023-05-12T09:23:29.974Z,2.03
2023-05-12T09:26:01.994Z,1.98
2023-05-12T09:28:38.627Z,1.95
2023-05-12T09:37:15.368Z,2.00
2023-05-12T09:42:24.523Z,2.08
2023-05-12T09:47:40.142Z,2.53
2023-05-12T09:50:07.980Z,2.20
2023-05-12T09:52:40.052Z,2.22
2023-05-12T09:55:25.327Z,2.72
2023-05-12T09:57:53.553Z,2.20
2023-05-12T10:00:33.183Z,2.50
2023-05-12T10:03:18.883Z,2.08
2023-05-12T10:05:59.737Z,2.42
2023-05-12T10:08:48.137Z,2.00
2023-05-12T10:11:16.834Z,2.08
2023-05-12T10:16:33.733Z,2.17
2023-05-12T10:19:02.483Z,2.08
2023-05-12T10:21:29.611Z,2.50
2023-05-12T10:23:57.970Z,2.45
2023-05-12T10:26:25.653Z,2.03
2023-05-12T10:28:53.277Z,2.20
2023-05-12T10:31:22.356Z,2.88
2023-05-12T10:33:56.760Z,2.53
2023-05-12T10:36:24.828Z,2.50
2023-05-12T10:38:51.952Z,2.20
2023-05-12T10:41:29.657Z,2.33
2023-05-12T10:43:58.045Z,1.90
2023-05-12T10:46:26.629Z,2.50
2023-05-12T10:48:54.942Z,1.83
2023-05-12T10:51:36.220Z,2.20
2023-05-12T10:54:07.473Z,2.35
2023-05-12T10:56:38.333Z,2.10
2023-05-12T10:59:12.799Z,2.42
2023-05-12T11:01:41.895Z,2.15
2023-05-12T11:04:10.652Z,2.55
2023-05-12T11:06:39.185Z,2.17
2023-05-12T11:09:09.001Z,1.80
2023-05-12T11:11:36.555Z,2.10
2023-05-12T11:14:03.672Z,2.80
2023-05-12T11:16:30.760Z,2.10
2023-05-12T11:19:01.902Z,2.65
2023-05-12T11:21:30.809Z,2.10
2023-05-12T11:24:02.985Z,2.35
2023-05-12T11:26:30.710Z,1.98
2023-05-12T11:29:07.290Z,3.22
2023-05-12T11:31:36.515Z,2.08
2023-05-12T11:34:14.370Z,2.20
2023-05-12T11:36:47.776Z,2.33
2023-05-12T11:39:16.953Z,2.17
2023-05-12T11:41:45.165Z,2.20
2023-05-12T11:44:19.591Z,2.35
2023-05-12T11:54:52.577Z,2.38
2023-05-12T11:57:29.716Z,2.10
2023-05-12T11:59:58.604Z,2.08
2023-05-12T12:05:06.466Z,2.60
2023-05-12T12:07:36.573Z,3.78
2023-05-12T12:10:13.190Z,2.55
2023-05-12T12:12:40.962Z,2.67
2023-05-12T12:15:08.823Z,2.25
2023-05-12T12:17:37.008Z,2.60
2023-05-12T12:20:05.072Z,2.97
2023-05-12T12:22:35.288Z,2.33
2023-05-12T12:27:30.463Z,2.40
2023-05-12T12:29:57.769Z,2.72
2023-05-12T12:32:25.291Z,3.00
2023-05-12T12:34:53.583Z,2.35
2023-05-12T12:37:32.600Z,2.40
2023-05-12T12:40:07.574Z,2.78
2023-05-12T12:42:36.856Z,2.53
2023-05-12T12:45:06.448Z,2.17
2023-05-12T12:47:35.094Z,2.00
2023-05-12T12:50:02.599Z,2.55
2023-05-12T12:52:34.355Z,2.72
2023-05-12T12:55:02.856Z,2.70
2023-05-12T12:57:44.113Z,2.65
2023-05-12T13:00:12.306Z,2.33
2023-05-12T13:02:39.958Z,2.83
2023-05-12T13:05:08.281Z,2.80
2023-05-12T13:07:37.243Z,2.70
2023-05-12T13:10:05.822Z,2.65
2023-05-12T13:12:33.857Z,2.58
2023-05-12T13:15:03.460Z,2.20
2023-05-12T13:17:32.511Z,2.03
2023-05-12T13:19:59.928Z,2.05
2023-05-12T13:22:30.318Z,2.30
2023-05-12T13:24:57.610Z,2.60
2023-05-12T13:27:24.750Z,2.58
2023-05-12T13:29:51.934Z,2.40
2023-05-12T13:32:21.182Z,2.03
2023-05-12T13:34:48.465Z,2.13
2023-05-12T13:37:15.981Z,1.90
2023-05-12T13:39:43.250Z,2.28
2023-05-12T13:42:10.399Z,2.33
2023-05-12T13:44:38.173Z,2.17
2023-05-12T13:49:58.364Z,1.95
2023-05-12T13:52:26.447Z,3.00
2023-05-12T13:54:54.122Z,2.20
2023-05-12T13:57:23.305Z,2.47
2023-05-12T13:59:54.276Z,2.65
2023-05-12T14:02:22.451Z,2.50
2023-05-12T14:04:50.471Z,2.17
2023-05-12T14:07:19.395Z,2.33
2023-05-12T14:09:48.973Z,2.30
2023-05-12T14:12:17.242Z,3.13
2023-05-12T14:14:50.640Z,2.20
2023-05-12T14:17:21.508Z,2.08
2023-05-12T14:19:53.161Z,2.08
2023-05-12T14:27:46.533Z,2.08
2023-05-12T14:30:13.982Z,1.98
2023-05-12T14:32:41.273Z,2.33
2023-05-12T14:35:10.779Z,2.40
2023-05-12T14:37:38.647Z,2.40
2023-05-12T14:40:06.288Z,2.10
2023-05-12T14:42:35.171Z,1.95
2023-05-12T14:45:03.684Z,2.45
2023-05-12T14:49:56.837Z,2.10
2023-05-12T14:52:24.099Z,2.00
2023-05-12T14:54:51.171Z,2.00
2023-05-12T14:57:18.199Z,2.47
2023-05-12T14:59:45.184Z,2.50
2023-05-12T15:02:16.603Z,2.40
2023-05-12T15:04:45.650Z,1.98
2023-05-12T15:07:15.474Z,2.28
2023-05-12T15:09:43.846Z,2.25
2023-05-12T15:12:12.880Z,2.75
2023-05-12T15:14:46.250Z,2.30
2023-05-12T15:17:15.121Z,2.30
2023-05-12T15:22:22.356Z,2.78
2023-05-12T15:24:50.205Z,2.35
2023-05-12T15:27:18.302Z,2.40
2023-05-12T15:29:45.724Z,2.17
2023-05-12T15:32:12.990Z,1.98
2023-05-12T15:34:40.232Z,2.85
2023-05-12T15:37:07.443Z,2.42
2023-05-12T15:39:34.924Z,2.53
2023-05-12T15:58:17.129Z,3.17
2023-05-12T16:00:44.419Z,2.47
2023-05-12T16:03:19.984Z,2.13
2023-05-12T16:05:47.445Z,1.98
2023-05-12T16:08:14.652Z,2.13
2023-05-12T16:10:41.753Z,2.45
2023-05-12T16:13:09.022Z,2.35
2023-05-12T16:15:36.341Z,2.65
2023-05-12T16:18:03.714Z,1.98
2023-05-12T16:20:30.918Z,2.00
2023-05-12T16:23:05.556Z,2.25
2023-05-12T16:30:56.707Z,2.30
2023-05-12T16:36:08.131Z,2.33
2023-05-12T16:38:36.051Z,2.47
2023-05-12T16:41:03.746Z,2.17
2023-05-12T16:46:21.042Z,2.20
2023-05-12T16:51:35.603Z,1.90
2023-05-12T16:54:03.053Z,2.28
2023-05-12T16:56:30.676Z,1.90
2023-05-12T16:58:59.747Z,1.92
2023-05-12T17:01:33.766Z,2.55
2023-05-12T17:04:02.531Z,1.90
2023-05-12T17:09:07.236Z,2.13
2023-05-12T17:11:37.680Z,1.98
2023-05-12T17:14:11.032Z,1.70
2023-05-12T17:16:42.434Z,1.50
2023-05-12T17:19:14.423Z,1.80
2023-05-12T17:21:43.005Z,2.03
2023-05-12T17:24:10.326Z,2.80
2023-05-12T17:26:37.977Z,2.20
2023-05-12T17:29:05.304Z,2.05
2023-05-12T17:31:32.461Z,2.60
2023-05-12T17:33:59.790Z,3.33
2023-05-12T17:36:26.878Z,2.55
2023-05-12T17:38:54.415Z,2.40
2023-05-12T17:41:21.610Z,2.20
2023-05-12T17:43:48.864Z,2.50
2023-05-12T17:46:16.324Z,2.25
2023-05-12T17:48:44.501Z,3.10
2023-05-12T17:51:11.722Z,2.38
2023-05-12T17:53:39.517Z,2.90
2023-05-12T17:56:06.792Z,2.47
2023-05-12T17:58:33.909Z,2.58
2023-05-12T18:01:01.074Z,2.40
2023-05-12T18:03:28.496Z,2.50
2023-05-12T18:05:55.767Z,2.70
2023-05-12T18:08:22.908Z,2.70
2023-05-12T18:10:50.100Z,3.08
2023-05-12T18:13:17.293Z,3.00
2023-05-12T18:15:44.460Z,2.63
2023-05-12T18:18:11.979Z,3.33
2023-05-12T18:20:39.164Z,3.38
2023-05-12T18:23:06.353Z,3.00
2023-05-12T18:25:33.442Z,2.92
2023-05-12T18:28:00.620Z,2.70
2023-05-12T18:30:27.679Z,2.97
2023-05-12T18:32:54.805Z,3.22
2023-05-12T18:35:22.216Z,2.72
2023-05-12T18:37:49.643Z,3.17
2023-05-12T18:40:17.062Z,3.05
2023-05-12T18:42:44.321Z,3.00
2023-05-12T18:45:11.939Z,3.30
2023-05-12T18:47:39.549Z,4.10
2023-05-12T18:50:07.597Z,3.28
2023-05-12T18:52:34.854Z,3.55
2023-05-12T18:55:02.002Z,4.20
2023-05-12T18:57:29.189Z,3.10
2023-05-12T18:59:56.315Z,3.33
2023-05-12T19:02:23.482Z,3.90
2023-05-12T19:04:50.866Z,3.53
2023-05-12T19:07:19.634Z,3.20
2023-05-12T19:09:47.184Z,3.10
2023-05-12T19:12:14.607Z,4.25
2023-05-12T19:14:43.041Z,2.72
2023-05-12T19:17:10.398Z,3.67
2023-05-12T19:19:38.234Z,3.92
2023-05-12T19:22:05.553Z,4.20
2023-05-12T19:24:33.021Z,3.67
2023-05-12T19:27:00.288Z,3.88
2023-05-12T19:29:27.619Z,4.57
2023-05-12T19:31:55.005Z,4.78
2023-05-12T19:34:22.499Z,4.93
2023-05-12T19:36:49.599Z,4.90
2023-05-12T19:39:17.049Z,4.80
2023-05-12T19:41:44.301Z,5.50
2023-05-12T19:44:11.454Z,5.97
2023-05-12T19:46:38.702Z,5.68
2023-05-12T19:49:06.258Z,5.70
2023-05-12T19:51:33.474Z,5.28
2023-05-12T19:54:01.944Z,4.70
2023-05-12T19:56:29.959Z,5.35
2023-05-12T19:58:57.137Z,5.07
2023-05-12T20:01:24.525Z,4.75
2023-05-12T20:03:52.951Z,4.70
2023-05-12T20:06:26.333Z,5.10
2023-05-12T20:11:33.841Z,4.80
2023-05-12T20:14:01.305Z,4.80
2023-05-12T20:16:28.506Z,5.53
2023-05-12T20:18:55.716Z,5.68
2023-05-12T20:21:22.843Z,4.95
2023-05-12T20:23:49.997Z,5.25
2023-05-12T20:26:17.075Z,5.25
2023-05-12T20:28:44.298Z,4.80
2023-05-12T20:31:11.486Z,4.90
2023-05-12T20:33:39.052Z,5.38
2023-05-12T20:36:06.362Z,5.85
2023-05-12T20:38:33.485Z,5.82
2023-05-12T20:41:07.536Z,5.15
2023-05-12T20:43:35.093Z,6.30
2023-05-12T20:46:07.517Z,6.72
2023-05-12T20:48:34.811Z,6.60
2023-05-12T20:51:10.535Z,6.88
2023-05-12T20:53:37.692Z,6.53
2023-05-12T20:56:04.868Z,6.15
2023-05-12T20:58:32.047Z,7.18
2023-05-12T21:00:59.184Z,7.88
2023-05-12T21:03:27.395Z,9.45
2023-05-12T21:05:54.606Z,8.77
2023-05-12T21:08:21.744Z,17.65
2023-05-12T21:10:49.099Z,26.98
2023-05-12T21:13:16.267Z,25.33
2023-05-12T21:15:43.339Z,16.98
2023-05-12T21:18:10.753Z,24.52
2023-05-12T21:20:37.877Z,17.23
2023-05-12T21:23:05.033Z,26.08
2023-05-12T21:25:32.218Z,27.98
2023-05-12T21:27:59.391Z,35.45
2023-05-12T21:30:26.520Z,36.55
2023-05-12T21:32:53.716Z,30.42
2023-05-12T21:35:20.872Z,37.05
2023-05-12T21:40:18.841Z,31.08
2023-05-12T21:42:46.086Z,33.22
2023-05-12T21:45:13.194Z,32.15
2023-05-12T21:47:40.336Z,24.15
2023-05-12T21:50:07.593Z,23.23
2023-05-12T21:52:34.873Z,22.30
2023-05-12T21:55:04.723Z,23.85
2023-05-12T21:57:32.176Z,19.65
2023-05-12T22:00:03.854Z,15.55
2023-05-12T22:02:31.383Z,16.55
2023-05-12T22:04:58.543Z,11.80
2023-05-12T22:07:26.104Z,10.15
2023-05-12T22:09:53.458Z,8.82
2023-05-12T22:12:21.964Z,8.52
2023-05-12T22:14:49.218Z,6.75
2023-05-12T22:17:16.844Z,6.63
2023-05-12T22:19:44.409Z,6.80
2023-05-12T22:22:11.556Z,5.75
2023-05-12T22:24:38.703Z,7.65
2023-05-12T22:27:05.945Z,6.70
2023-05-12T22:29:33.120Z,6.93
2023-05-12T22:32:00.909Z,6.82
2023-05-12T22:34:28.222Z,8.48
2023-05-12T22:36:55.431Z,7.28
2023-05-12T22:39:22.735Z,11.13
2023-05-12T22:41:49.859Z,12.23
2023-05-12T22:44:16.917Z,12.93
2023-05-12T22:46:44.097Z,11.57
2023-05-12T22:49:11.184Z,11.48
2023-05-12T22:51:38.451Z,11.13
2023-05-12T22:54:05.622Z,8.75
2023-05-12T22:56:32.763Z,8.35
2023-05-12T22:58:59.897Z,7.95
2023-05-12T23:01:27.083Z,8.88
2023-05-12T23:03:54.190Z,7.75
2023-05-12T23:06:21.349Z,9.52
2023-05-12T23:08:49.144Z,11.07
2023-05-12T23:11:16.282Z,10.43
2023-05-12T23:13:43.503Z,11.52
2023-05-12T23:16:10.579Z,11.85
2023-05-12T23:18:37.786Z,10.30
2023-05-12T23:21:05.115Z,10.00
2023-05-12T23:23:33.033Z,10.40
2023-05-12T23:26:00.165Z,11.55
2023-05-12T23:28:27.230Z,10.63
2023-05-12T23:30:54.384Z,10.65
2023-05-12T23:33:21.547Z,11.13
2023-05-12T23:35:48.999Z,10.23
2023-05-12T23:38:16.348Z,11.32
2023-05-12T23:40:43.759Z,11.27
2023-05-12T23:43:10.803Z,11.20
2023-05-12T23:45:37.895Z,12.10
2023-05-12T23:48:05.302Z,10.98
2023-05-12T23:50:32.499Z,10.98
2023-05-12T23:53:00.188Z,10.00
2023-05-12T23:55:27.515Z,10.82
2023-05-12T23:57:54.916Z,10.57
